createdAt,value
2023-05-14T00:00:47.881Z,72.70
2023-05-14T00:03:14.453Z,72.58
2023-05-14T00:05:48.307Z,72.70
2023-05-14T00:08:14.794Z,72.70
2023-05-14T00:10:41.217Z,72.69
2023-05-14T00:13:07.647Z,73.20
2023-05-14T00:15:34.572Z,72.98
2023-05-14T00:20:29.962Z,72.20
2023-05-14T00:22:56.572Z,73.00
2023-05-14T00:25:23.166Z,73.34
2023-05-14T00:27:52.170Z,73.46
2023-05-14T00:30:18.695Z,74.14
2023-05-14T00:32:45.142Z,74.27
2023-05-14T00:35:11.602Z,74.35
2023-05-14T00:37:39.207Z,74.95
2023-05-14T00:40:07.199Z,75.49
2023-05-14T00:42:33.725Z,75.51
2023-05-14T00:45:00.468Z,75.36
2023-05-14T00:47:27.357Z,75.51
2023-05-14T00:49:57.837Z,75.84
2023-05-14T00:52:25.575Z,75.85
2023-05-14T00:54:52.494Z,76.61
2023-05-14T00:57:19.195Z,76.79
2023-05-14T00:59:45.926Z,77.03
2023-05-14T01:02:12.400Z,77.39
2023-05-14T01:04:39.766Z,77.80
2023-05-14T01:07:21.290Z,78.28
2023-05-14T01:10:01.553Z,78.41
2023-05-14T01:12:45.675Z,78.59
2023-05-14T01:15:24.714Z,79.05
2023-05-14T01:18:03.037Z,79.59
2023-05-14T01:20:29.590Z,79.98
2023-05-14T01:22:56.125Z,80.10
2023-05-14T01:25:22.787Z,79.99
2023-05-14T01:27:53.011Z,80.12
2023-05-14T01:30:27.219Z,80.66
2023-05-14T01:32:56.374Z,80.78
2023-05-14T01:35:32.160Z,81.19
2023-05-14T01:38:02.124Z,81.66
2023-05-14T01:40:29.663Z,81.90
2023-05-14T01:42:56.852Z,82.16
2023-05-14T01:45:26.585Z,82.48
2023-05-14T01:47:53.606Z,82.61
2023-05-14T01:50:20.359Z,82.85
2023-05-14T01:52:48.265Z,82.92
2023-05-14T01:55:15.899Z,83.25
2023-05-14T01:57:42.375Z,83.19
2023-05-14T02:00:09.366Z,83.51
2023-05-14T02:02:35.781Z,83.45
2023-05-14T02:05:02.945Z,84.00
2023-05-14T02:07:30.348Z,84.07
2023-05-14T02:09:56.907Z,84.21
2023-05-14T02:12:23.494Z,83.87
2023-05-14T02:14:49.944Z,84.01
2023-05-14T02:17:17.642Z,84.45
2023-05-14T02:19:44.656Z,84.55
2023-05-14T02:22:13.481Z,84.60
2023-05-14T02:24:43.066Z,84.92
2023-05-14T02:27:09.679Z,84.70
2023-05-14T02:29:36.230Z,84.78
2023-05-14T02:32:02.739Z,84.92
2023-05-14T02:34:35.320Z,85.06
2023-05-14T02:37:01.913Z,85.07
2023-05-14T02:39:30.646Z,85.70
2023-05-14T02:41:57.063Z,85.76
2023-05-14T02:44:26.085Z,85.81
2023-05-14T02:46:52.537Z,85.91
2023-05-14T02:49:18.887Z,85.92
2023-05-14T02:51:45.387Z,86.11
2023-05-14T02:54:11.933Z,86.31
2023-05-14T02:56:39.578Z,86.48
2023-05-14T02:59:09.393Z,86.63
2023-05-14T03:01:36.349Z,86.47
2023-05-14T03:04:03.328Z,86.89
2023-05-14T03:06:32.455Z,86.89
2023-05-14T03:08:58.853Z,86.91
2023-05-14T03:11:25.472Z,86.80
2023-05-14T03:13:51.886Z,86.99
2023-05-14T03:16:18.422Z,87.17
2023-05-14T03:18:44.971Z,87.24
2023-05-14T03:21:11.428Z,87.39
2023-05-14T03:23:38.072Z,87.04
2023-05-14T03:26:04.948Z,87.18
2023-05-14T03:28:31.392Z,87.57
2023-05-14T03:30:57.997Z,87.64
2023-05-14T03:33:24.566Z,87.75
2023-05-14T03:35:51.633Z,87.97
2023-05-14T03:38:18.130Z,87.69
2023-05-14T03:40:45.515Z,87.71
2023-05-14T03:43:11.871Z,87.79
2023-05-14T03:45:40.420Z,87.81
2023-05-14T03:48:06.988Z,87.74
2023-05-14T03:50:33.610Z,87.80
2023-05-14T03:53:00.179Z,87.32
2023-05-14T03:55:33.869Z,87.30
2023-05-14T03:58:00.514Z,87.21
2023-05-14T04:00:27.335Z,86.98
2023-05-14T04:02:54.177Z,87.32
2023-05-14T04:05:20.758Z,87.23
2023-05-14T04:07:47.192Z,87.10
2023-05-14T04:10:14.147Z,87.04
2023-05-14T04:12:40.580Z,87.17
2023-05-14T04:15:10.420Z,87.15
2023-05-14T04:17:36.887Z,87.16
2023-05-14T04:20:04.379Z,87.15
2023-05-14T04:22:30.977Z,86.98
2023-05-14T04:24:57.580Z,87.07
2023-05-14T04:27:24.173Z,86.91
2023-05-14T04:29:50.799Z,87.01
2023-05-14T04:32:18.096Z,87.06
2023-05-14T04:34:44.590Z,87.21
2023-05-14T04:37:10.981Z,87.03
2023-05-14T04:39:37.872Z,86.91
2023-05-14T04:42:04.942Z,86.86
2023-05-14T04:44:31.561Z,87.14
2023-05-14T04:47:00.403Z,87.07
2023-05-14T04:49:27.032Z,87.20
2023-05-14T04:51:58.867Z,87.41
2023-05-14T04:54:25.346Z,87.47
2023-05-14T04:56:51.772Z,87.80
2023-05-14T04:59:18.203Z,88.20
2023-05-14T05:01:45.760Z,88.39
2023-05-14T05:04:12.586Z,88.48
2023-05-14T05:06:39.170Z,88.42
2023-05-14T05:09:05.665Z,88.67
2023-05-14T05:11:32.154Z,88.48
2023-05-14T05:13:58.649Z,88.53
2023-05-14T05:16:25.313Z,88.44
2023-05-14T05:18:51.840Z,88.62
2023-05-14T05:21:20.666Z,88.83
2023-05-14T05:23:47.155Z,88.74
2023-05-14T05:26:13.646Z,88.83
2023-05-14T05:28:42.547Z,88.49
2023-05-14T05:31:09.057Z,88.50
2023-05-14T05:33:38.790Z,88.13
2023-05-14T05:36:05.504Z,88.46
2023-05-14T05:38:31.913Z,88.13
2023-05-14T05:40:58.398Z,87.74
2023-05-14T05:43:24.845Z,87.79
2023-05-14T05:45:51.350Z,87.72
2023-05-14T05:48:20.333Z,87.46
2023-05-14T05:50:50.203Z,87.29
2023-05-14T05:53:16.903Z,87.21
2023-05-14T05:55:43.333Z,87.10
2023-05-14T05:58:09.793Z,86.93
2023-05-14T06:00:36.382Z,87.47
2023-05-14T06:03:02.876Z,86.91
2023-05-14T06:05:29.371Z,85.75
2023-05-14T06:07:55.788Z,84.60
2023-05-14T06:10:22.815Z,84.46
2023-05-14T06:12:49.484Z,84.24
2023-05-14T06:15:16.105Z,83.91
2023-05-14T06:17:42.650Z,83.53
2023-05-14T06:20:09.936Z,83.18
2023-05-14T06:22:36.509Z,83.01
2023-05-14T06:25:03.598Z,83.11
2023-05-14T06:27:30.326Z,83.08
2023-05-14T06:29:56.708Z,83.10
2023-05-14T06:32:23.215Z,83.28
2023-05-14T06:34:49.639Z,83.31
2023-05-14T06:37:16.164Z,82.89
2023-05-14T06:39:50.052Z,82.84
2023-05-14T06:42:19.443Z,82.47
2023-05-14T06:44:45.894Z,82.78
2023-05-14T06:47:12.390Z,82.91
2023-05-14T06:49:39.403Z,82.23
2023-05-14T06:52:06.366Z,82.37
2023-05-14T06:54:32.882Z,81.71
2023-05-14T06:56:59.462Z,79.14
2023-05-14T06:59:26.329Z,76.80
2023-05-14T07:01:52.797Z,75.17
2023-05-14T07:04:19.521Z,73.51
2023-05-14T07:06:46.064Z,71.93
2023-05-14T07:09:16.532Z,69.75
2023-05-14T07:11:43.079Z,68.76
2023-05-14T07:14:09.511Z,67.00
2023-05-14T07:16:36.305Z,65.60
2023-05-14T07:19:02.975Z,64.73
2023-05-14T07:21:36.078Z,65.04
2023-05-14T07:24:02.572Z,64.63
2023-05-14T07:26:29.346Z,64.95
2023-05-14T07:28:55.773Z,64.84
2023-05-14T07:31:22.215Z,65.11
2023-05-14T07:33:48.644Z,64.78
2023-05-14T07:36:15.367Z,64.99
2023-05-14T07:38:41.879Z,64.62
2023-05-14T07:41:08.457Z,64.85
2023-05-14T07:43:34.923Z,64.46
2023-05-14T07:46:04.609Z,63.92
2023-05-14T07:48:31.215Z,64.63
2023-05-14T07:50:57.649Z,64.49
2023-05-14T07:53:24.874Z,64.36
2023-05-14T07:55:51.709Z,64.05
2023-05-14T07:58:18.684Z,62.82
2023-05-14T08:00:45.109Z,63.13
2023-05-14T08:03:11.915Z,61.94
2023-05-14T08:05:38.484Z,62.19
2023-05-14T08:08:04.908Z,60.95
2023-05-14T08:10:34.416Z,60.26
2023-05-14T08:13:01.130Z,58.91
2023-05-14T08:15:28.142Z,58.52
2023-05-14T08:17:54.629Z,56.54
2023-05-14T08:20:21.198Z,55.46
2023-05-14T08:22:47.671Z,54.78
2023-05-14T08:25:14.300Z,53.96
2023-05-14T08:27:40.761Z,52.90
2023-05-14T08:30:07.704Z,53.13
2023-05-14T08:32:34.144Z,52.60
2023-05-14T08:35:00.804Z,51.69
2023-05-14T08:37:27.411Z,50.61
2023-05-14T08:39:53.880Z,50.12
2023-05-14T08:42:22.303Z,49.88
2023-05-14T08:44:53.752Z,49.78
2023-05-14T08:47:21.612Z,50.05
2023-05-14T08:49:54.914Z,48.92
2023-05-14T08:52:23.231Z,48.95
2023-05-14T08:54:52.802Z,48.43
2023-05-14T08:57:20.273Z,48.85
2023-05-14T08:59:47.367Z,48.80
2023-05-14T09:02:15.501Z,47.73
2023-05-14T09:04:42.532Z,47.20
2023-05-14T09:07:09.445Z,48.60
2023-05-14T09:09:36.665Z,47.54
2023-05-14T09:12:03.300Z,46.91
2023-05-14T09:14:29.968Z,46.76
2023-05-14T09:16:57.036Z,46.26
2023-05-14T09:19:24.038Z,46.27
2023-05-14T09:21:50.797Z,45.49
2023-05-14T09:24:25.778Z,45.53
2023-05-14T09:26:57.446Z,44.99
2023-05-14T09:29:28.665Z,44.58
2023-05-14T09:31:56.603Z,44.41
2023-05-14T09:34:35.107Z,43.95
2023-05-14T09:37:05.789Z,43.54
2023-05-14T09:39:33.430Z,44.02
2023-05-14T09:42:02.868Z,43.81
2023-05-14T09:44:29.668Z,44.31
2023-05-14T09:46:56.438Z,43.51
2023-05-14T09:49:23.245Z,42.69
2023-05-14T09:51:51.944Z,42.60
2023-05-14T09:54:18.572Z,43.49
2023-05-14T09:56:45.225Z,43.24
2023-05-14T09:59:11.796Z,42.73
2023-05-14T10:01:38.564Z,40.83
2023-05-14T10:04:08.255Z,42.30
2023-05-14T10:06:39.149Z,42.88
2023-05-14T10:09:13.755Z,42.72
2023-05-14T10:11:43.861Z,42.82
2023-05-14T10:14:39.896Z,42.73
2023-05-14T10:17:07.738Z,43.88
2023-05-14T10:19:37.322Z,43.51
2023-05-14T10:22:05.043Z,42.37
2023-05-14T10:24:32.822Z,42.89
2023-05-14T10:26:59.720Z,41.94
2023-05-14T10:29:37.356Z,43.20
2023-05-14T10:32:06.565Z,42.74
2023-05-14T10:34:34.705Z,40.65
2023-05-14T10:37:02.652Z,40.93
2023-05-14T10:39:42.283Z,41.80
2023-05-14T10:42:11.839Z,42.05
2023-05-14T10:44:42.840Z,42.41
2023-05-14T10:47:11.513Z,41.21
2023-05-14T10:49:43.407Z,41.35
2023-05-14T10:52:11.966Z,40.07
2023-05-14T10:54:38.906Z,40.17
2023-05-14T10:57:11.661Z,40.67
2023-05-14T10:59:44.558Z,39.64
2023-05-14T11:02:41.240Z,40.05
2023-05-14T11:05:14.358Z,39.64
2023-05-14T11:07:46.235Z,40.03
2023-05-14T11:10:17.329Z,40.09
2023-05-14T11:12:46.112Z,41.19
2023-05-14T11:15:15.757Z,41.41
2023-05-14T11:17:43.870Z,41.03
2023-05-14T11:20:11.267Z,41.68
2023-05-14T11:22:45.272Z,41.20
2023-05-14T11:25:20.095Z,41.30
2023-05-14T11:27:48.249Z,41.99
2023-05-14T11:30:16.639Z,41.38
2023-05-14T11:32:45.698Z,41.59
2023-05-14T11:35:12.964Z,41.05
2023-05-14T11:37:44.382Z,39.18
2023-05-14T11:40:19.024Z,39.27
2023-05-14T11:42:45.796Z,39.60
2023-05-14T11:45:13.139Z,39.83
2023-05-14T11:47:41.879Z,39.41
2023-05-14T11:50:09.636Z,39.09
2023-05-14T11:52:41.252Z,38.88
2023-05-14T11:55:11.529Z,38.85
2023-05-14T11:57:38.050Z,38.02
2023-05-14T12:00:09.019Z,38.29
2023-05-14T12:02:36.432Z,38.03
2023-05-14T12:05:03.124Z,38.90
2023-05-14T12:07:30.432Z,39.85
2023-05-14T12:10:01.923Z,39.08
2023-05-14T12:12:34.161Z,38.05
2023-05-14T12:15:00.669Z,38.52
2023-05-14T12:17:27.308Z,38.50
2023-05-14T12:19:53.830Z,38.39
2023-05-14T12:22:21.979Z,37.95
2023-05-14T12:24:55.963Z,37.87
2023-05-14T12:27:27.207Z,37.67
2023-05-14T12:30:12.945Z,36.86
2023-05-14T12:32:46.897Z,37.28
2023-05-14T12:35:13.451Z,38.13
2023-05-14T12:37:40.049Z,36.92
2023-05-14T12:40:12.839Z,37.09
2023-05-14T12:42:39.221Z,37.36
2023-05-14T12:45:09.201Z,37.18
2023-05-14T12:47:36.753Z,37.41
2023-05-14T12:50:03.712Z,37.13
2023-05-14T12:52:38.460Z,37.47
2023-05-14T12:55:07.363Z,37.10
2023-05-14T12:57:35.487Z,36.69
2023-05-14T13:00:06.377Z,36.43
2023-05-14T13:02:32.894Z,36.64
2023-05-14T13:05:05.782Z,36.44
2023-05-14T13:07:32.329Z,35.25
2023-05-14T13:09:58.797Z,36.25
2023-05-14T13:12:25.285Z,36.77
2023-05-14T13:14:54.208Z,36.81
2023-05-14T13:17:20.742Z,37.40
2023-05-14T13:19:47.200Z,37.02
2023-05-14T13:22:14.429Z,35.92
2023-05-14T13:24:40.806Z,36.99
2023-05-14T13:27:07.191Z,36.43
2023-05-14T13:29:33.611Z,35.28
2023-05-14T13:32:00.073Z,36.18
2023-05-14T13:34:26.568Z,35.59
2023-05-14T13:36:53.108Z,35.40
2023-05-14T13:39:22.586Z,34.95
2023-05-14T13:41:50.627Z,35.86
2023-05-14T13:44:17.290Z,35.35
2023-05-14T13:46:44.126Z,35.89
2023-05-14T13:49:11.180Z,37.30
2023-05-14T13:51:40.559Z,37.88
2023-05-14T13:54:07.293Z,37.56
2023-05-14T13:56:33.860Z,37.73
2023-05-14T13:59:00.641Z,37.98
2023-05-14T14:01:27.266Z,37.67
2023-05-14T14:03:53.741Z,37.58
2023-05-14T14:06:20.292Z,37.14
2023-05-14T14:08:46.830Z,37.07
2023-05-14T14:11:16.948Z,36.85
2023-05-14T14:13:46.374Z,36.65
2023-05-14T14:16:13.214Z,36.89
2023-05-14T14:18:39.765Z,38.47
2023-05-14T14:21:06.361Z,38.07
2023-05-14T14:23:32.875Z,37.92
2023-05-14T14:25:59.376Z,38.23
2023-05-14T14:28:26.102Z,37.98
2023-05-14T14:30:52.662Z,38.41
2023-05-14T14:33:19.050Z,39.07
2023-05-14T14:35:46.254Z,39.16
2023-05-14T14:38:12.748Z,39.13
2023-05-14T14:40:39.255Z,40.16
2023-05-14T14:43:05.716Z,40.74
2023-05-14T14:45:32.176Z,40.28
2023-05-14T14:48:25.255Z,39.77
2023-05-14T14:50:52.266Z,40.51
2023-05-14T14:53:19.900Z,41.13
2023-05-14T14:55:46.867Z,41.72
2023-05-14T14:58:13.240Z,41.52
2023-05-14T15:00:40.261Z,41.60
2023-05-14T15:03:08.863Z,41.09
2023-05-14T15:05:35.657Z,41.73
2023-05-14T15:08:05.268Z,41.93
2023-05-14T15:10:32.851Z,41.38
2023-05-14T15:12:59.837Z,41.67
2023-05-14T15:15:26.393Z,41.32
2023-05-14T15:17:52.851Z,42.25
2023-05-14T15:20:19.282Z,42.96
2023-05-14T15:22:45.779Z,42.69
2023-05-14T15:25:12.410Z,42.44
2023-05-14T15:27:38.864Z,41.25
2023-05-14T15:30:06.272Z,41.00
2023-05-14T15:32:33.711Z,41.03
2023-05-14T15:35:01.082Z,40.01
2023-05-14T15:37:27.617Z,36.49
2023-05-14T15:39:54.080Z,35.91
2023-05-14T15:42:20.984Z,36.62
2023-05-14T15:44:47.596Z,37.34
2023-05-14T15:47:14.077Z,38.01
2023-05-14T15:49:40.515Z,38.54
2023-05-14T15:52:07.228Z,39.38
2023-05-14T15:54:33.781Z,39.71
2023-05-14T15:57:00.926Z,39.95
2023-05-14T15:59:27.416Z,41.17
2023-05-14T16:01:53.890Z,41.93
2023-05-14T16:04:23.057Z,42.68
2023-05-14T16:06:50.793Z,43.39
2023-05-14T16:09:17.327Z,43.79
2023-05-14T16:11:43.712Z,44.18
2023-05-14T16:14:10.521Z,44.60
2023-05-14T16:16:36.979Z,45.72
2023-05-14T16:19:03.487Z,46.35
2023-05-14T16:21:29.960Z,47.44
2023-05-14T16:23:56.676Z,49.15
2023-05-14T16:26:23.158Z,49.49
2023-05-14T16:28:49.668Z,49.80
2023-05-14T16:31:16.372Z,50.79
2023-05-14T16:33:42.891Z,51.05
2023-05-14T16:36:09.384Z,51.05
2023-05-14T16:38:41.465Z,51.31
2023-05-14T16:41:14.643Z,51.56
2023-05-14T16:43:41.142Z,52.56
2023-05-14T16:46:08.163Z,52.95
2023-05-14T16:48:34.678Z,53.85
2023-05-14T16:51:01.150Z,54.00
2023-05-14T16:53:27.619Z,54.40
2023-05-14T16:55:54.248Z,55.40
2023-05-14T16:58:20.929Z,55.42
2023-05-14T17:00:47.474Z,55.54
2023-05-14T17:03:14.096Z,55.97
2023-05-14T17:05:40.697Z,56.53
2023-05-14T17:08:07.076Z,57.49
2023-05-14T17:10:33.570Z,57.10
2023-05-14T17:13:00.364Z,56.77
2023-05-14T17:15:26.876Z,57.09
2023-05-14T17:17:55.944Z,57.66
2023-05-14T17:20:22.559Z,57.09
2023-05-14T17:22:50.473Z,56.97
2023-05-14T17:25:18.155Z,57.90
2023-05-14T17:27:46.995Z,58.63
2023-05-14T17:30:13.504Z,58.25
2023-05-14T17:32:44.041Z,58.44
2023-05-14T17:35:13.706Z,58.73
2023-05-14T17:37:42.761Z,58.23
2023-05-14T17:40:09.857Z,58.72
2023-05-14T17:42:36.316Z,58.12
2023-05-14T17:45:02.908Z,58.26
2023-05-14T17:47:29.485Z,57.75
2023-05-14T17:49:56.095Z,57.38
2023-05-14T17:52:22.667Z,57.67
2023-05-14T17:54:49.226Z,58.02
2023-05-14T17:57:15.917Z,58.09
2023-05-14T17:59:42.424Z,58.13
2023-05-14T18:02:08.920Z,58.62
2023-05-14T18:04:35.348Z,58.81
2023-05-14T18:07:03.109Z,59.12
2023-05-14T18:09:29.518Z,59.10
2023-05-14T18:11:56.999Z,58.89
2023-05-14T18:14:23.553Z,58.39
2023-05-14T18:16:50.135Z,58.04
2023-05-14T18:19:16.762Z,56.89
2023-05-14T18:21:43.320Z,56.97
2023-05-14T18:24:09.745Z,57.48
2023-05-14T18:26:36.490Z,57.63
2023-05-14T18:29:02.938Z,57.93
2023-05-14T18:31:29.424Z,57.57
2023-05-14T18:33:55.864Z,57.90
2023-05-14T18:36:22.429Z,58.16
2023-05-14T18:38:48.963Z,58.39
2023-05-14T18:41:15.590Z,58.50
2023-05-14T18:43:42.010Z,58.69
2023-05-14T18:46:12.278Z,58.87
2023-05-14T18:48:38.825Z,59.43
2023-05-14T18:51:05.564Z,59.25
2023-05-14T18:53:32.100Z,59.29
2023-05-14T18:56:00.180Z,59.23
2023-05-14T18:58:26.671Z,58.98
2023-05-14T19:00:53.232Z,59.32
2023-05-14T19:03:23.032Z,59.48
2023-05-14T19:05:51.712Z,59.91
2023-05-14T19:08:18.139Z,59.88
2023-05-14T19:10:44.661Z,60.11
2023-05-14T19:13:11.548Z,60.18
2023-05-14T19:15:38.012Z,60.45
2023-05-14T19:18:04.822Z,60.42
2023-05-14T19:20:31.296Z,60.16
2023-05-14T19:22:57.745Z,60.22
2023-05-14T19:25:27.912Z,60.56
2023-05-14T19:27:55.447Z,60.64
2023-05-14T19:30:23.281Z,60.80
2023-05-14T19:32:51.993Z,60.74
2023-05-14T19:35:20.610Z,60.87
2023-05-14T19:37:47.214Z,60.96
2023-05-14T19:40:13.716Z,61.35
2023-05-14T19:42:42.581Z,61.53
2023-05-14T19:45:10.183Z,61.65
2023-05-14T19:47:36.823Z,62.10
2023-05-14T19:50:03.526Z,62.11
2023-05-14T19:52:29.934Z,61.99
2023-05-14T19:54:56.307Z,61.94
2023-05-14T19:57:22.843Z,62.25
2023-05-14T19:59:49.382Z,61.97
2023-05-14T20:02:18.099Z,62.43
2023-05-14T20:04:45.975Z,62.33
2023-05-14T20:07:15.570Z,62.73
2023-05-14T20:09:42.235Z,62.72
2023-05-14T20:12:09.416Z,62.86
2023-05-14T20:14:36.195Z,62.99
2023-05-14T20:17:06.531Z,63.09
2023-05-14T20:19:33.105Z,63.00
2023-05-14T20:21:59.596Z,63.14
2023-05-14T20:24:26.022Z,63.00
2023-05-14T20:26:52.559Z,62.91
2023-05-14T20:29:18.988Z,62.70
2023-05-14T20:31:45.445Z,62.36
2023-05-14T20:34:11.834Z,62.69
2023-05-14T20:36:41.737Z,62.83
2023-05-14T20:39:09.942Z,63.50
2023-05-14T20:41:36.664Z,63.83
2023-05-14T20:44:03.389Z,64.00
2023-05-14T20:46:29.921Z,63.71
2023-05-14T20:48:57.320Z,64.02
2023-05-14T20:51:26.326Z,64.15
2023-05-14T20:53:52.732Z,64.02
2023-05-14T20:56:19.150Z,64.01
2023-05-14T20:58:45.691Z,64.44
2023-05-14T21:01:12.251Z,64.88
2023-05-14T21:03:38.844Z,64.72
2023-05-14T21:06:05.522Z,64.96
2023-05-14T21:08:35.470Z,65.03
2023-05-14T21:11:01.922Z,65.60
2023-05-14T21:13:28.400Z,65.79
2023-05-14T21:15:54.855Z,65.42
2023-05-14T21:18:26.973Z,65.83
2023-05-14T21:20:53.462Z,65.64
2023-05-14T21:23:19.863Z,65.95
2023-05-14T21:25:46.328Z,65.97
2023-05-14T21:28:15.789Z,66.31
2023-05-14T21:30:44.582Z,66.47
2023-05-14T21:33:11.146Z,66.52
2023-05-14T21:35:37.547Z,67.05
2023-05-14T21:38:04.469Z,67.52
2023-05-14T21:40:31.184Z,67.81
2023-05-14T21:42:57.583Z,67.75
2023-05-14T21:45:24.099Z,68.06
2023-05-14T21:47:50.729Z,68.57
2023-05-14T21:50:17.440Z,68.73
2023-05-14T21:52:43.933Z,69.15
2023-05-14T21:55:13.414Z,69.41
2023-05-14T21:57:40.875Z,69.87
2023-05-14T22:00:11.850Z,70.30
2023-05-14T22:02:38.609Z,70.90
2023-05-14T22:05:05.656Z,71.66
2023-05-14T22:07:32.869Z,72.12
2023-05-14T22:09:59.501Z,72.19
2023-05-14T22:12:26.741Z,72.71
2023-05-14T22:14:53.258Z,73.01
2023-05-14T22:17:19.715Z,73.39
2023-05-14T22:19:46.296Z,73.91
2023-05-14T22:22:16.758Z,74.04
2023-05-14T22:24:43.224Z,74.28
2023-05-14T22:27:09.660Z,74.59
2023-05-14T22:29:38.141Z,74.91
2023-05-14T22:32:07.586Z,75.23
2023-05-14T22:34:34.031Z,75.26
2023-05-14T22:37:00.533Z,75.27
2023-05-14T22:39:33.058Z,75.70
2023-05-14T22:41:59.601Z,75.64
2023-05-14T22:44:27.725Z,75.92
2023-05-14T22:46:55.811Z,76.08
2023-05-14T22:49:22.468Z,76.14
2023-05-14T22:51:52.428Z,76.38
2023-05-14T22:54:18.948Z,76.54
2023-05-14T22:56:45.505Z,76.71
2023-05-14T22:59:11.847Z,77.28
2023-05-14T23:01:38.441Z,77.48
2023-05-14T23:04:04.988Z,77.58
2023-05-14T23:06:31.852Z,77.62
2023-05-14T23:08:58.349Z,77.79
2023-05-14T23:11:26.004Z,77.98
2023-05-14T23:13:52.489Z,78.19
2023-05-14T23:16:19.085Z,78.31
2023-05-14T23:18:45.757Z,78.29
2023-05-14T23:21:13.311Z,78.37
2023-05-14T23:23:39.844Z,77.99
2023-05-14T23:26:07.433Z,78.13
2023-05-14T23:28:37.069Z,78.60
2023-05-14T23:31:03.458Z,78.69
2023-05-14T23:33:29.872Z,78.95
2023-05-14T23:35:56.385Z,79.49
2023-05-14T23:38:22.798Z,79.60
2023-05-14T23:40:49.369Z,80.27
2023-05-14T23:43:15.850Z,80.84
2023-05-14T23:45:42.313Z,81.21
2023-05-14T23:48:08.795Z,81.38
2023-05-14T23:50:35.300Z,81.37
2023-05-14T23:53:04.986Z,81.17
2023-05-14T23:55:31.498Z,81.10
2023-05-14T23:57:58.152Z,81.07
